Time;durP1;ratioP1;P1;durP2;ratioP2;P2;SDS_P1;SDS_P2;PMS_P1;PMS_P2;Temp;Humidity;BMP_temperature;BMP_pressure;BME280_temperature;BME280_humidity;BME280_pressure;Samples;Min_cycle;Max_cycle;Signal;HPM_P1;HPM_P2
2021/12/17 00:05:03;;;;;;;16.50;7.13;;;7.00;74.20;;;;;;4959442;28;19910;-87
2021/12/17 00:07:32;;;;;;;24.00;8.23;;;6.90;73.90;;;;;;4957627;28;20038;-86
2021/12/17 00:10:01;;;;;;;20.60;8.37;;;6.90;74.10;;;;;;4953469;28;20061;-85
2021/12/17 00:12:28;;;;;;;19.70;9.97;;;6.90;74.20;;;;;;4946929;29;20042;-85
2021/12/17 00:14:54;;;;;;;21.50;9.27;;;6.90;74.40;;;;;;4950348;28;20471;-86
2021/12/17 00:17:24;;;;;;;;;;;6.80;74.50;;;;;;4941823;29;20026;-86
2021/12/17 00:49:54;;;;;;;19.80;6.73;;;6.40;75.40;;;;;;4959286;28;20031;-86
2021/12/17 00:52:20;;;;;;;14.80;6.07;;;6.30;75.50;;;;;;4957656;29;20499;-86
2021/12/17 00:54:46;;;;;;;;;;;6.30;75.70;;;;;;4948941;28;20026;-86
2021/12/17 00:57:16;;;;;;;16.73;5.83;;;6.30;75.80;;;;;;4961011;28;19958;-86
2021/12/17 00:59:45;;;;;;;24.13;8.07;;;6.30;75.60;;;;;;4955005;28;20055;-86
2021/12/17 01:02:15;;;;;;;14.57;6.03;;;6.30;75.80;;;;;;4956950;28;20403;-86
2021/12/17 01:04:45;;;;;;;17.07;7.17;;;6.20;75.80;;;;;;4949392;29;20039;-86
2021/12/17 01:07:12;;;;;;;13.23;6.83;;;6.30;75.90;;;;;;4950575;28;20074;-87
2021/12/17 01:09:38;;;;;;;15.30;7.33;;;6.30;75.80;;;;;;4960969;28;20058;-86
2021/12/17 01:12:05;;;;;;;;;;;6.30;75.70;;;;;;4953208;28;20037;-86
2021/12/17 01:14:32;;;;;;;13.53;5.83;;;6.40;75.70;;;;;;4944585;28;19914;-87
2021/12/17 01:16:59;;;;;;;13.63;4.93;;;6.40;75.40;;;;;;4953182;29;20023;-86
2021/12/17 01:24:52;;;;;;;17.37;7.07;;;6.50;75.40;;;;;;4941519;28;20503;-85
2021/12/17 01:35:34;;;;;;;18.47;6.47;;;6.60;75.00;;;;;;4958700;29;20111;-86
2021/12/17 01:43:22;;;;;;;13.47;7.07;;;6.70;74.70;;;;;;4958559;28;20503;-87
2021/12/17 01:45:47;;;;;;;12.00;5.30;;;6.70;74.80;;;;;;4949972;29;20023;-86
2021/12/17 01:48:18;;;;;;;;;;;6.70;74.90;;;;;;4960259;29;20111;-86
2021/12/17 01:56:36;;;;;;;13.80;6.13;;;6.70;74.70;;;;;;4965297;29;20034;-86
2021/12/17 01:59:23;;;;;;;14.93;6.63;;;6.70;74.80;;;;;;4952586;29;20031;-86
2021/12/17 02:01:52;;;;;;;11.67;5.17;;;6.70;74.80;;;;;;4948670;29;20396;-87
2021/12/17 02:04:18;;;;;;;9.77;4.90;;;6.70;74.70;;;;;;4957125;28;20380;-86
2021/12/17 02:06:44;;;;;;;;;;;6.70;74.50;;;;;;4944394;29;20034;-85
2021/12/17 02:09:51;;;;;;;16.37;5.67;;;6.70;74.30;;;;;;4942824;29;19934;-86
2021/12/17 02:28:41;;;;;;;13.90;5.30;;;6.70;73.30;;;;;;4951852;29;20031;-85
2021/12/17 02:29:12;;;;;;;10.53;3.53;;;6.70;73.20;;;;;;4957950;29;20074;-86
2021/12/17 02:31:38;;;;;;;9.77;3.73;;;6.70;73.00;;;;;;4948825;29;20118;-87
2021/12/17 02:34:08;;;;;;;;;;;6.70;73.00;;;;;;4949463;29;20050;-86
2021/12/17 02:36:35;;;;;;;14.33;4.90;;;6.60;72.70;;;;;;4944180;29;20318;-86
2021/12/17 02:47:22;;;;;;;9.80;4.23;;;6.60;72.20;;;;;;4956484;29;20122;-87
2021/12/17 02:49:48;;;;;;;;;;;6.60;72.10;;;;;;4949135;29;20459;-86
2021/12/17 02:52:16;;;;;;;12.40;4.90;;;6.60;72.30;;;;;;4940603;29;20295;-87
2021/12/17 02:54:42;;;;;;;11.10;4.77;;;6.60;72.10;;;;;;4943530;29;20480;-86
2021/12/17 02:57:09;;;;;;;;;;;6.50;72.10;;;;;;4956754;28;20074;-86
2021/12/17 02:59:36;;;;;;;12.75;4.90;;;6.50;72.20;;;;;;4941827;29;19917;-86
2021/12/17 03:02:08;;;;;;;10.10;4.47;;;6.60;72.00;;;;;;4948039;29;20110;-87
2021/12/17 03:04:40;;;;;;;14.67;5.47;;;6.50;72.20;;;;;;4957285;29;20023;-87
2021/12/17 03:07:10;;;;;;;10.83;4.47;;;6.50;72.40;;;;;;4947534;28;20032;-87
2021/12/17 03:12:17;;;;;;;12.13;5.20;;;6.50;72.40;;;;;;4957491;28;20039;-87
2021/12/17 03:14:51;;;;;;;18.40;5.23;;;6.60;72.60;;;;;;4946813;29;20106;-86
2021/12/17 03:17:29;;;;;;;12.13;6.00;;;6.60;72.60;;;;;;4940329;28;20033;-86
2021/12/17 03:25:05;;;;;;;13.40;4.47;;;6.60;72.60;;;;;;4957863;29;19991;-85
2021/12/17 03:27:30;;;;;;;;;;;6.70;72.30;;;;;;4956352;28;20381;-86
2021/12/17 03:29:56;;;;;;;13.60;5.20;;;6.60;72.30;;;;;;4948805;28;19953;-87
2021/12/17 03:32:22;;;;;;;14.98;6.07;;;6.60;72.10;;;;;;4942132;29;20031;-87
2021/12/17 03:34:47;;;;;;;;;;;6.60;72.10;;;;;;4947561;29;20027;-85
2021/12/17 03:37:13;;;;;;;13.30;4.70;;;6.60;72.30;;;;;;4947898;29;19914;-85
2021/12/17 03:39:38;;;;;;;;;;;6.70;71.90;;;;;;4954551;29;20110;-86
2021/12/17 03:42:07;;;;;;;11.10;5.00;;;6.60;72.10;;;;;;4953296;29;19957;-86
2021/12/17 03:44:32;;;;;;;15.20;4.53;;;6.60;71.80;;;;;;4954310;28;20114;-86
2021/12/17 03:46:59;;;;;;;;;;;6.60;71.80;;;;;;4950159;29;20074;-87
2021/12/17 03:49:25;;;;;;;13.97;5.53;;;6.60;71.80;;;;;;4942877;29;20330;-86
2021/12/17 03:52:04;;;;;;;;;;;6.60;71.60;;;;;;4948159;29;20028;-86
2021/12/17 03:54:36;;;;;;;9.60;3.60;;;6.60;71.70;;;;;;4942232;29;19938;-87
2021/12/17 03:57:05;;;;;;;12.70;5.40;;;6.60;71.30;;;;;;4949169;29;20106;-86
2021/12/17 03:59:30;;;;;;;15.47;6.07;;;6.50;71.50;;;;;;4956542;28;20476;-86
2021/12/17 04:01:56;;;;;;;;;;;6.50;71.30;;;;;;4947652;29;20078;-87
2021/12/17 04:04:21;;;;;;;12.67;4.60;;;6.50;71.50;;;;;;4946663;29;19910;-86
2021/12/17 04:06:47;;;;;;;;;;;6.60;71.00;;;;;;4939450;29;20031;-85
2021/12/17 04:09:13;;;;;;;11.50;5.10;;;6.60;71.10;;;;;;4956490;29;20001;-85
2021/12/17 04:11:38;;;;;;;;;;;6.50;70.80;;;;;;4952857;29;20042;-86
2021/12/17 04:14:04;;;;;;;14.07;5.57;;;6.50;70.90;;;;;;4955226;29;20020;-86
2021/12/17 04:16:32;;;;;;;19.42;5.95;;;6.50;70.80;;;;;;4947746;29;20031;-86
2021/12/17 04:18:58;;;;;;;14.07;5.37;;;6.50;71.00;;;;;;4956949;29;20023;-86
2021/12/17 04:21:24;;;;;;;17.23;6.27;;;6.40;71.00;;;;;;4955568;29;20098;-85
2021/12/17 04:23:52;;;;;;;;;;;6.40;71.10;;;;;;4947797;29;20027;-86
2021/12/17 04:26:18;;;;;;;13.77;5.00;;;6.40;71.30;;;;;;4938669;29;19915;-86
2021/12/17 04:28:47;;;;;;;;;;;6.50;71.10;;;;;;4939768;28;20450;-86
2021/12/17 04:31:14;;;;;;;13.90;5.07;;;6.40;71.40;;;;;;4959884;29;20282;-86
2021/12/17 04:33:41;;;;;;;15.70;5.27;;;6.40;71.10;;;;;;4947160;29;20465;-85
2021/12/17 04:36:09;;;;;;;20.97;7.07;;;6.40;71.30;;;;;;4950203;29;20070;-87
2021/12/17 04:38:36;;;;;;;15.87;6.13;;;6.40;71.30;;;;;;4959550;28;20077;-86
2021/12/17 04:46:44;;;;;;;11.67;4.73;;;6.40;71.10;;;;;;4935428;29;20031;-86
2021/12/17 04:57:33;;;;;;;10.70;4.83;;;6.40;70.80;;;;;;4951419;29;20077;-86
2021/12/17 05:00:13;;;;;;;14.80;6.50;;;6.40;70.80;;;;;;4949289;29;20037;-85
2021/12/17 05:02:44;;;;;;;9.87;4.80;;;6.30;70.80;;;;;;4942500;29;20038;-85
2021/12/17 05:05:11;;;;;;;17.10;5.90;;;6.30;70.70;;;;;;4946186;29;20036;-87
2021/12/17 05:07:40;;;;;;;12.23;5.50;;;6.30;70.60;;;;;;4957490;29;20477;-86
2021/12/17 05:20:50;;;;;;;12.40;5.30;;;6.30;70.30;;;;;;4952438;29;20050;-87
2021/12/17 05:23:25;;;;;;;16.53;4.60;;;6.30;70.30;;;;;;4949212;29;20023;-87
2021/12/17 05:25:51;;;;;;;14.57;5.93;;;6.20;70.20;;;;;;4943870;29;20488;-86
2021/12/17 05:28:17;;;;;;;15.40;5.83;;;6.20;70.20;;;;;;4944172;29;20031;-87
2021/12/17 05:30:47;;;;;;;;;;;6.20;70.30;;;;;;4959547;29;20034;-86
2021/12/17 05:33:17;;;;;;;11.60;4.57;;;6.20;70.40;;;;;;4944874;29;19933;-87
2021/12/17 05:35:43;;;;;;;12.30;4.30;;;6.20;70.20;;;;;;4942296;29;20031;-87
2021/12/17 05:38:09;;;;;;;;;;;6.20;70.20;;;;;;4954015;29;20042;-86
2021/12/17 05:40:35;;;;;;;15.80;5.50;;;6.20;70.30;;;;;;4958397;28;19910;-86
2021/12/17 05:43:02;;;;;;;;;;;6.20;70.10;;;;;;4958989;28;20472;-86
2021/12/17 05:45:36;;;;;;;;;;;6.20;70.30;;;;;;4951740;29;19910;-86
2021/12/17 05:48:07;;;;;;;8.90;3.67;;;6.20;70.20;;;;;;4941500;29;19989;-86
2021/12/17 05:50:36;;;;;;;9.97;4.93;;;6.20;70.10;;;;;;4940971;29;20448;-85
2021/12/17 05:53:06;;;;;;;14.93;7.30;;;6.10;70.20;;;;;;4949295;29;20122;-85
2021/12/17 05:55:32;;;;;;;12.03;5.20;;;6.10;70.20;;;;;;4940921;29;20114;-85
2021/12/17 05:57:58;;;;;;;13.57;5.53;;;6.10;70.30;;;;;;4947807;29;20038;-85
2021/12/17 06:00:25;;;;;;;;;;;6.00;70.30;;;;;;4945974;29;20027;-85
2021/12/17 06:02:51;;;;;;;7.65;3.67;;;6.00;70.40;;;;;;4941164;29;19921;-86
2021/12/17 06:05:18;;;;;;;12.70;4.97;;;6.00;70.30;;;;;;4944205;29;20024;-87
2021/12/17 06:07:44;;;;;;;14.77;5.40;;;5.90;70.20;;;;;;4956025;29;20058;-86
2021/12/17 06:10:09;;;;;;;;;;;5.90;70.20;;;;;;4949242;29;20055;-86
2021/12/17 06:12:36;;;;;;;14.10;5.63;;;5.90;70.20;;;;;;4950938;29;19914;-86
2021/12/17 06:15:04;;;;;;;14.83;5.07;;;5.80;70.10;;;;;;4949864;29;20106;-84
2021/12/17 06:17:30;;;;;;;12.53;5.87;;;5.80;70.10;;;;;;4944603;29;20396;-82
2021/12/17 06:19:56;;;;;;;;;;;5.80;70.20;;;;;;4958858;28;20061;-85
2021/12/17 06:22:21;;;;;;;6.73;3.73;;;5.80;70.30;;;;;;4961700;28;20371;-84
2021/12/17 06:24:47;;;;;;;10.75;4.50;;;5.80;70.10;;;;;;4967525;28;20062;-85
2021/12/17 06:27:13;;;;;;;;;;;5.80;70.10;;;;;;4956354;29;20028;-85
2021/12/17 06:29:39;;;;;;;13.37;5.17;;;5.70;70.10;;;;;;4957224;28;19949;-85
2021/12/17 06:32:05;;;;;;;10.30;3.07;;;5.70;70.00;;;;;;4944885;28;20109;-86
2021/12/17 06:34:31;;;;;;;8.97;4.60;;;5.60;70.20;;;;;;4943341;29;20027;-85
2021/12/17 06:36:56;;;;;;;;;;;5.60;70.20;;;;;;4959401;28;20027;-84
2021/12/17 06:39:22;;;;;;;15.47;5.57;;;5.50;70.10;;;;;;4959058;28;19997;-85
2021/12/17 06:41:48;;;;;;;;;;;5.60;69.90;;;;;;4951463;28;20018;-89
2021/12/17 06:44:17;;;;;;;14.97;4.37;;;5.60;69.90;;;;;;4980977;28;19890;-89
2021/12/17 07:10:43;;;;;;;10.40;4.10;;;5.40;70.40;;;;;;4964891;28;20067;-85
2021/12/17 07:35:13;;;;;;;11.63;4.47;;;5.20;70.70;;;;;;4947150;29;20063;-88
2021/12/17 07:40:08;;;;;;;17.03;6.33;;;5.10;70.80;;;;;;4945615;29;20032;-87
2021/12/17 07:42:34;;;;;;;16.07;5.60;;;5.10;70.90;;;;;;4929099;29;20023;-87
2021/12/17 07:45:00;;;;;;;;;;;5.10;71.10;;;;;;4928664;29;20028;-89
2021/12/17 07:47:27;;;;;;;13.30;5.30;;;5.10;71.20;;;;;;4945252;29;19907;-89
2021/12/17 07:49:53;;;;;;;14.13;5.77;;;5.10;71.00;;;;;;4931838;29;20032;-87
2021/12/17 07:52:20;;;;;;;9.90;4.07;;;5.10;71.20;;;;;;4936434;29;20095;-87
2021/12/17 07:54:46;;;;;;;20.07;5.37;;;5.10;71.30;;;;;;4935760;29;20059;-88
2021/12/17 07:57:12;;;;;;;;;;;5.20;71.30;;;;;;4937738;29;20388;-87
2021/12/17 07:59:39;;;;;;;16.20;5.80;;;5.30;71.20;;;;;;4952424;29;19940;-90
2021/12/17 08:02:07;;;;;;;10.23;5.03;;;5.30;70.80;;;;;;4932380;29;20102;-90
2021/12/17 08:04:33;;;;;;;14.23;5.33;;;5.30;71.00;;;;;;4932486;29;20031;-89
2021/12/17 08:06:59;;;;;;;11.67;4.73;;;5.30;71.10;;;;;;4934875;29;20059;-88
2021/12/17 08:09:25;;;;;;;;;;;5.30;71.00;;;;;;4933963;29;20370;-90
2021/12/17 08:11:56;;;;;;;12.37;4.67;;;5.40;71.00;;;;;;4928397;29;20387;-90
2021/12/17 08:14:23;;;;;;;14.13;4.40;;;5.40;70.60;;;;;;4934624;29;20480;-90
2021/12/17 08:24:53;;;;;;;7.60;3.67;;;5.60;70.30;;;;;;4966089;28;20436;-90
2021/12/17 08:30:22;;;;;;;10.33;3.73;;;5.60;70.40;;;;;;4967571;29;20066;-89
2021/12/17 08:32:49;;;;;;;12.60;4.35;;;5.60;70.40;;;;;;4953133;29;20019;-89
2021/12/17 08:35:15;;;;;;;11.93;5.13;;;5.60;70.50;;;;;;4951327;29;20023;-90
2021/12/17 08:37:41;;;;;;;15.83;4.80;;;5.70;70.60;;;;;;4952245;29;20102;-90
2021/12/17 08:40:08;;;;;;;12.67;4.60;;;5.70;70.50;;;;;;4952424;29;20493;-90
2021/12/17 08:42:35;;;;;;;11.43;3.90;;;5.80;70.50;;;;;;4952813;29;20071;-91
2021/12/17 08:45:01;;;;;;;15.27;4.80;;;5.80;70.40;;;;;;4955074;29;20038;-90
2021/12/17 08:47:27;;;;;;;;;;;5.90;70.40;;;;;;4951658;29;20051;-90
2021/12/17 08:49:53;;;;;;;10.50;3.80;;;5.90;70.30;;;;;;4953050;29;19910;-90
2021/12/17 08:52:22;;;;;;;10.73;4.37;;;5.80;70.00;;;;;;4965843;29;20031;-90
2021/12/17 08:54:47;;;;;;;14.17;4.57;;;5.80;70.20;;;;;;4967729;29;20027;-90
2021/12/17 08:57:13;;;;;;;;;;;5.80;70.30;;;;;;4970180;29;20025;-90
2021/12/17 08:59:39;;;;;;;16.37;4.67;;;5.80;70.40;;;;;;4969783;29;19907;-90
2021/12/17 09:02:08;;;;;;;10.43;4.10;;;5.80;70.10;;;;;;4969595;29;20030;-90
2021/12/17 09:04:35;;;;;;;15.83;4.80;;;5.90;70.20;;;;;;4968276;29;20126;-91
2021/12/17 09:07:00;;;;;;;10.00;4.23;;;5.90;70.20;;;;;;4956254;29;20420;-90
2021/12/17 09:09:27;;;;;;;;;;;5.90;70.20;;;;;;4970801;29;20103;-90
2021/12/17 09:11:53;;;;;;;10.27;3.88;;;5.90;70.10;;;;;;4968023;29;19910;-90
2021/12/17 09:14:20;;;;;;;;;;;5.80;69.80;;;;;;4968327;29;20020;-90
2021/12/17 09:16:47;;;;;;;7.30;3.50;;;5.80;70.10;;;;;;4964549;28;19913;-90
2021/12/17 09:19:13;;;;;;;10.27;3.53;;;5.80;69.70;;;;;;4952677;29;20035;-90
2021/12/17 09:21:39;;;;;;;10.70;4.63;;;5.80;69.90;;;;;;4951968;29;20055;-90
2021/12/17 09:24:08;;;;;;;;;;;5.80;70.00;;;;;;4952637;29;20026;-90
2021/12/17 09:26:35;;;;;;;20.10;5.23;;;5.80;70.00;;;;;;4966620;29;19906;-90
2021/12/17 09:29:01;;;;;;;12.47;4.73;;;5.80;69.80;;;;;;4950689;29;20026;-89
2021/12/17 09:31:27;;;;;;;;;;;5.80;69.90;;;;;;4953917;29;20035;-92
2021/12/17 09:33:53;;;;;;;10.93;3.50;;;5.90;70.00;;;;;;4946045;29;19906;-90
2021/12/17 09:36:19;;;;;;;;;;;6.00;69.60;;;;;;4962160;29;20476;-92
2021/12/17 09:38:49;;;;;;;10.40;4.30;;;6.00;69.70;;;;;;4977983;28;19918;-91
2021/12/17 09:41:17;;;;;;;16.00;4.53;;;6.00;69.40;;;;;;4957715;29;20122;-91
2021/12/17 09:43:43;;;;;;;11.93;4.13;;;5.90;69.50;;;;;;4952948;29;20043;-91
2021/12/17 09:46:09;;;;;;;11.27;3.77;;;6.00;69.60;;;;;;4950117;29;20054;-91
2021/12/17 09:48:35;;;;;;;;;;;5.90;69.70;;;;;;4955852;28;20488;-91
2021/12/17 09:51:04;;;;;;;13.00;4.37;;;5.90;69.70;;;;;;4980721;28;19911;-92
2021/12/17 09:53:30;;;;;;;14.77;4.37;;;6.00;69.10;;;;;;4964603;29;20027;-92
2021/12/17 09:55:56;;;;;;;;;;;6.00;69.20;;;;;;4963557;28;20019;-89
2021/12/17 09:58:22;;;;;;;12.70;4.00;;;6.00;69.20;;;;;;4978128;28;19911;-92
2021/12/17 10:00:48;;;;;;;10.20;3.87;;;6.00;69.00;;;;;;4946370;29;20039;-91
2021/12/17 10:03:13;;;;;;;;;;;6.00;69.00;;;;;;4959695;29;20050;-92
2021/12/17 10:05:40;;;;;;;13.83;4.60;;;6.10;68.80;;;;;;4980307;28;19903;-93
2021/12/17 10:08:11;;;;;;;11.73;3.87;;;6.10;68.60;;;;;;4964322;29;20031;-92
2021/12/17 10:10:47;;;;;;;15.77;4.53;;;6.10;68.60;;;;;;4963080;29;20520;-92
2021/12/17 10:13:20;;;;;;;15.00;5.37;;;6.10;68.70;;;;;;4958830;28;20031;-91
2021/12/17 10:15:58;;;;;;;9.83;3.70;;;6.30;68.60;;;;;;4963049;29;20038;-92
2021/12/17 10:18:42;;;;;;;18.13;4.80;;;6.30;68.50;;;;;;4963970;29;20028;-92
2021/12/17 10:21:09;;;;;;;17.40;4.43;;;6.40;68.10;;;;;;4963396;29;20118;-92
2021/12/17 10:23:36;;;;;;;12.10;4.60;;;6.50;68.00;;;;;;4956138;29;20484;-92
2021/12/17 10:26:02;;;;;;;;;;;6.60;67.60;;;;;;4956950;29;20448;-91
2021/12/17 10:28:28;;;;;;;8.60;4.30;;;6.60;67.50;;;;;;4963946;28;19910;-91
2021/12/17 10:30:57;;;;;;;8.20;3.10;;;6.70;66.70;;;;;;4964397;28;20038;-90
2021/12/17 10:33:27;;;;;;;14.27;4.53;;;6.60;66.40;;;;;;4959552;29;20031;-92
2021/12/17 10:35:53;;;;;;;14.03;5.03;;;6.60;66.60;;;;;;4946077;29;20047;-91
2021/12/17 10:38:23;;;;;;;10.23;4.03;;;6.60;66.80;;;;;;4957356;29;20131;-91
2021/12/17 10:40:58;;;;;;;8.13;3.60;;;6.60;66.90;;;;;;4960728;28;20057;-93
2021/12/17 10:43:31;;;;;;;14.57;4.87;;;6.60;66.90;;;;;;4951516;29;20039;-92
2021/12/17 10:51:02;;;;;;;10.53;4.43;;;6.70;66.50;;;;;;4964587;28;20032;-92
2021/12/17 10:53:28;;;;;;;11.30;3.73;;;6.70;66.50;;;;;;4953514;29;20039;-91
2021/12/17 10:55:54;;;;;;;;;;;6.80;66.40;;;;;;4946643;29;20038;-91
2021/12/17 10:58:21;;;;;;;8.83;4.20;;;6.80;66.40;;;;;;4947925;29;19898;-91
2021/12/17 11:01:06;;;;;;;10.63;4.73;;;6.90;65.70;;;;;;4961239;29;20034;-92
2021/12/17 11:03:40;;;;;;;13.87;4.77;;;6.90;65.70;;;;;;4944820;28;20010;-92
2021/12/17 11:06:06;;;;;;;7.87;4.63;;;6.90;65.90;;;;;;4947498;29;20039;-92
2021/12/17 11:08:34;;;;;;;;;;;6.90;65.80;;;;;;4956817;29;20061;-94
2021/12/17 11:11:09;;;;;;;10.73;4.20;;;6.90;65.80;;;;;;4953886;28;19961;-92
2021/12/17 11:13:58;;;;;;;19.40;6.53;;;6.80;65.60;;;;;;4945994;29;20391;-90
2021/12/17 11:16:27;;;;;;;14.87;6.07;;;6.80;65.90;;;;;;4954809;29;20043;-92
2021/12/17 11:18:53;;;;;;;12.27;4.33;;;6.80;65.90;;;;;;4961970;29;20057;-92
2021/12/17 11:21:22;;;;;;;13.23;5.63;;;6.80;65.90;;;;;;4960891;29;20043;-92
2021/12/17 11:23:48;;;;;;;10.07;3.47;;;6.80;66.00;;;;;;4961306;29;20063;-92
2021/12/17 11:26:17;;;;;;;13.33;6.07;;;6.80;66.10;;;;;;4954728;28;20054;-92
2021/12/17 11:28:44;;;;;;;9.27;4.10;;;6.80;65.90;;;;;;4961967;29;20035;-92
2021/12/17 11:31:10;;;;;;;11.70;5.23;;;6.70;65.50;;;;;;4961584;29;20062;-92
2021/12/17 11:33:38;;;;;;;9.30;3.43;;;6.70;65.30;;;;;;4961554;29;20036;-93
2021/12/17 11:36:04;;;;;;;13.30;5.07;;;6.70;65.50;;;;;;4964126;28;20404;-90
2021/12/17 11:38:46;;;;;;;;;;;6.70;65.50;;;;;;4952990;29;20037;-91
2021/12/17 11:41:15;;;;;;;17.33;5.90;;;6.80;65.60;;;;;;4973634;29;20363;-90
2021/12/17 11:43:53;;;;;;;14.77;6.43;;;6.80;65.50;;;;;;4974053;28;20031;-89
2021/12/17 11:46:27;;;;;;;17.87;6.67;;;6.80;65.70;;;;;;4961349;28;20027;-91
2021/12/17 11:48:59;;;;;;;15.57;6.60;;;6.70;66.00;;;;;;4954596;29;20143;-92
2021/12/17 11:51:27;;;;;;;13.73;5.00;;;6.80;66.20;;;;;;4949417;29;20059;-92
2021/12/17 11:53:59;;;;;;;13.83;4.83;;;6.80;66.10;;;;;;4953985;28;20427;-91
2021/12/17 11:56:40;;;;;;;18.83;5.93;;;6.80;66.10;;;;;;4960639;29;20059;-92
2021/12/17 11:59:07;;;;;;;9.47;4.23;;;6.80;66.20;;;;;;4961033;28;20501;-91
2021/12/17 12:02:00;;;;;;;9.83;4.97;;;6.70;66.20;;;;;;4948830;28;20031;-93
2021/12/17 12:04:32;;;;;;;11.07;5.10;;;6.70;66.00;;;;;;4949108;29;20495;-91
2021/12/17 12:07:12;;;;;;;15.70;5.23;;;6.60;65.90;;;;;;4962887;29;20054;-92
2021/12/17 12:09:59;;;;;;;10.20;4.97;;;6.60;65.90;;;;;;4951353;29;20098;-92
2021/12/17 12:12:34;;;;;;;14.32;5.18;;;6.60;65.70;;;;;;4963929;29;20595;-91
2021/12/17 12:15:23;;;;;;;15.07;5.27;;;6.60;65.50;;;;;;4944935;29;20047;-91
2021/12/17 12:17:58;;;;;;;9.90;4.27;;;6.50;65.50;;;;;;4960498;29;20042;-91
2021/12/17 12:20:48;;;;;;;14.57;5.37;;;6.50;65.60;;;;;;4964565;28;20043;-91
2021/12/17 12:23:16;;;;;;;13.87;5.80;;;6.50;65.70;;;;;;4965871;28;20035;-91
2021/12/17 12:25:42;;;;;;;11.40;5.07;;;6.50;65.70;;;;;;4965973;28;20039;-91
2021/12/17 12:28:07;;;;;;;;;;;6.50;65.40;;;;;;4965009;28;20119;-92
2021/12/17 12:30:44;;;;;;;12.10;4.90;;;6.50;65.60;;;;;;4965727;28;19911;-93
2021/12/17 12:33:10;;;;;;;;;;;6.60;65.40;;;;;;4963398;28;20118;-92
2021/12/17 12:35:36;;;;;;;8.07;3.40;;;6.60;65.30;;;;;;4949850;29;20014;-91
2021/12/17 12:38:16;;;;;;;20.70;6.13;;;6.60;65.00;;;;;;4955743;29;20027;-89
2021/12/17 12:40:50;;;;;;;13.70;6.43;;;6.50;65.20;;;;;;4960321;28;20035;-92
2021/12/17 12:43:36;;;;;;;13.93;5.87;;;6.40;65.40;;;;;;4946892;29;20019;-91
2021/12/17 12:46:02;;;;;;;6.87;3.83;;;6.40;65.60;;;;;;4956383;28;20031;-91
2021/12/17 12:48:27;;;;;;;;;;;6.40;65.60;;;;;;4966014;29;20031;-91
2021/12/17 12:51:12;;;;;;;9.90;4.43;;;6.30;65.70;;;;;;4972347;28;19918;-91
2021/12/17 12:53:37;;;;;;;13.50;4.93;;;6.30;65.50;;;;;;4973220;28;20411;-90
2021/12/17 12:56:08;;;;;;;;;;;6.40;65.50;;;;;;4973028;28;20015;-91
2021/12/17 12:58:37;;;;;;;11.93;5.70;;;6.30;65.60;;;;;;4976050;28;19910;-91
2021/12/17 13:01:13;;;;;;;;;;;6.30;65.50;;;;;;4977817;28;20045;-91
2021/12/17 13:03:41;;;;;;;13.90;5.50;;;6.20;65.90;;;;;;4960637;28;19907;-91
2021/12/17 13:06:16;;;;;;;6.60;3.93;;;6.20;65.90;;;;;;4960843;28;20598;-92
2021/12/17 13:08:52;;;;;;;16.60;5.93;;;6.10;66.10;;;;;;4977640;29;20055;-89
2021/12/17 13:11:21;;;;;;;13.07;5.57;;;6.10;66.10;;;;;;4978539;28;20067;-89
2021/12/17 13:13:54;;;;;;;14.03;5.23;;;6.00;66.30;;;;;;4978667;28;20102;-90
2021/12/17 13:16:54;;;;;;;13.57;5.83;;;6.00;66.50;;;;;;4978182;28;20095;-89
2021/12/17 13:22:43;;;;;;;11.93;5.60;;;6.00;66.70;;;;;;4996061;28;20082;-90
2021/12/17 13:25:09;;;;;;;19.93;6.60;;;6.00;66.70;;;;;;4980139;28;20034;-90
2021/12/17 13:34:36;;;;;;;10.20;5.13;;;6.10;66.50;;;;;;4915391;28;20065;-91
2021/12/17 13:37:05;;;;;;;10.77;5.37;;;6.10;66.50;;;;;;4979159;28;20050;-91
2021/12/17 13:39:53;;;;;;;11.30;5.80;;;6.10;66.70;;;;;;4977828;28;20038;-91
2021/12/17 13:42:32;;;;;;;9.77;5.10;;;6.10;66.80;;;;;;4963375;28;20030;-91
2021/12/17 13:45:05;;;;;;;15.63;5.57;;;6.10;66.70;;;;;;4980329;28;20030;-90
2021/12/17 13:47:58;;;;;;;16.27;5.93;;;6.10;66.80;;;;;;4978178;28;20031;-91
2021/12/17 13:50:44;;;;;;;9.37;4.73;;;6.10;66.70;;;;;;4978464;28;20034;-91
2021/12/17 13:53:27;;;;;;;18.67;4.87;;;6.10;66.70;;;;;;4995060;28;20036;-90
2021/12/17 13:55:53;;;;;;;18.23;5.73;;;6.10;66.80;;;;;;4965354;28;20030;-88
2021/12/17 13:58:23;;;;;;;;;;;6.20;66.60;;;;;;4962561;28;20122;-90
2021/12/17 14:00:57;;;;;;;9.20;4.90;;;6.20;66.70;;;;;;4977462;28;19959;-89
2021/12/17 14:03:28;;;;;;;14.93;6.30;;;6.10;66.40;;;;;;4960582;28;20022;-87
2021/12/17 14:06:10;;;;;;;17.03;5.90;;;6.10;66.50;;;;;;4961701;28;20026;-89
2021/12/17 14:08:42;;;;;;;14.30;4.67;;;6.10;66.60;;;;;;4961484;28;20023;-89
2021/12/17 14:11:29;;;;;;;17.40;6.07;;;6.10;66.70;;;;;;4961361;28;20035;-89
2021/12/17 14:13:55;;;;;;;20.38;5.97;;;6.10;66.80;;;;;;4961840;28;20038;-89
2021/12/17 14:16:28;;;;;;;;;;;6.10;66.70;;;;;;4961653;28;20021;-89
2021/12/17 14:18:58;;;;;;;16.20;6.00;;;6.10;66.70;;;;;;4977628;28;19914;-89
2021/12/17 14:21:36;;;;;;;16.47;6.97;;;6.20;66.50;;;;;;4958429;29;20039;-89
2021/12/17 14:28:05;;;;;;;18.50;6.93;;;6.10;66.70;;;;;;4959838;29;20026;-89
2021/12/17 14:30:54;;;;;;;24.13;8.50;;;6.10;66.60;;;;;;4957480;29;20388;-89
2021/12/17 14:33:22;;;;;;;20.13;8.07;;;6.10;66.70;;;;;;4958093;29;20027;-88
2021/12/17 14:35:52;;;;;;;10.20;4.90;;;6.10;66.70;;;;;;4957959;29;20576;-86
2021/12/17 14:38:21;;;;;;;15.57;5.30;;;6.10;66.80;;;;;;4957077;29;20104;-88
2021/12/17 14:40:57;;;;;;;21.57;7.17;;;6.00;66.80;;;;;;4942316;29;20453;-88
2021/12/17 14:43:27;;;;;;;18.17;7.60;;;6.10;66.90;;;;;;4941184;29;20058;-88
2021/12/17 14:46:31;;;;;;;15.57;6.37;;;6.10;66.90;;;;;;4941417;29;20063;-88
2021/12/17 14:49:31;;;;;;;16.70;6.50;;;6.10;66.90;;;;;;4953440;29;20127;-92
2021/12/17 15:05:25;;;;;;;22.93;7.47;;;6.10;67.00;;;;;;4967907;28;20070;-90
2021/12/17 15:07:53;;;;;;;19.50;7.37;;;6.10;67.10;;;;;;4966495;29;20046;-90
2021/12/17 15:10:19;;;;;;;19.93;8.97;;;6.10;67.10;;;;;;4967074;29;20042;-92
2021/12/17 15:12:46;;;;;;;24.83;10.13;;;6.10;67.10;;;;;;4959419;29;20027;-92
2021/12/17 15:15:13;;;;;;;14.77;7.10;;;6.10;67.00;;;;;;4953583;29;20034;-91
2021/12/17 15:17:40;;;;;;;19.50;7.57;;;6.10;67.10;;;;;;4945257;29;20027;-91
2021/12/17 15:20:08;;;;;;;20.33;7.30;;;6.10;67.00;;;;;;4945699;29;20011;-92
2021/12/17 15:22:34;;;;;;;17.17;7.23;;;6.10;67.10;;;;;;4944702;29;20049;-92
2021/12/17 15:25:00;;;;;;;16.63;7.70;;;6.10;67.00;;;;;;4943293;29;20027;-91
2021/12/17 15:27:29;;;;;;;;;;;6.10;67.00;;;;;;4943494;29;20027;-92
2021/12/17 15:29:56;;;;;;;18.50;7.30;;;6.20;67.10;;;;;;4943456;29;19906;-91
2021/12/17 15:32:22;;;;;;;18.53;8.40;;;6.20;66.80;;;;;;4943761;29;20038;-91
2021/12/17 15:34:48;;;;;;;;;;;6.20;67.00;;;;;;4957571;29;20027;-91
2021/12/17 15:37:14;;;;;;;17.40;7.75;;;6.20;67.10;;;;;;4961573;29;19906;-94
2021/12/17 15:39:40;;;;;;;22.92;8.85;;;6.20;66.80;;;;;;4960218;29;20070;-93
2021/12/17 15:42:05;;;;;;;21.90;8.68;;;6.20;67.00;;;;;;4960387;29;20027;-94
2021/12/17 15:44:34;;;;;;;18.75;9.30;;;6.20;67.00;;;;;;4960178;29;20062;-94
2021/12/17 15:46:59;;;;;;;20.93;8.93;;;6.20;67.10;;;;;;4961176;29;20027;-94
2021/12/17 15:49:27;;;;;;;;;;;6.20;67.10;;;;;;4961341;28;20039;-93
2021/12/17 15:51:53;;;;;;;19.90;8.77;;;6.20;67.20;;;;;;4960111;29;19929;-93
2021/12/17 15:54:19;;;;;;;;;;;6.20;66.90;;;;;;4962216;28;20066;-93
2021/12/17 15:56:46;;;;;;;20.80;7.73;;;6.20;67.10;;;;;;4961362;29;19913;-93
2021/12/17 15:59:12;;;;;;;30.37;10.10;;;6.20;66.90;;;;;;4961710;29;20058;-91
2021/12/17 16:01:38;;;;;;;;;;;6.20;67.00;;;;;;4961379;29;20018;-94
2021/12/17 16:04:04;;;;;;;13.47;5.23;;;6.20;67.10;;;;;;4961446;28;19906;-94
2021/12/17 16:06:30;;;;;;;25.33;7.93;;;6.20;66.90;;;;;;4961264;29;20035;-90
2021/12/17 16:08:58;;;;;;;;;;;6.20;66.90;;;;;;4943178;29;20520;-87
2021/12/17 16:17:30;;;;;;;22.03;9.47;;;6.10;67.00;;;;;;4957723;29;20118;-85
2021/12/17 16:22:22;;;;;;;24.93;8.13;;;6.10;67.30;;;;;;4957192;29;20095;-84
2021/12/17 16:24:47;;;;;;;;;;;6.10;67.30;;;;;;4939792;29;20027;-84
2021/12/17 16:27:13;;;;;;;24.20;9.90;;;6.10;67.40;;;;;;4941920;29;19912;-85
2021/12/17 16:29:39;;;;;;;;;;;6.10;67.10;;;;;;4943401;29;20023;-86
2021/12/17 16:32:04;;;;;;;22.03;8.20;;;6.10;67.30;;;;;;4959992;29;19961;-85
2021/12/17 16:34:30;;;;;;;23.27;7.75;;;6.10;67.10;;;;;;4923755;29;20078;-85
2021/12/17 16:36:59;;;;;;;19.80;7.68;;;6.10;67.20;;;;;;4941069;29;20413;-84
2021/12/17 16:39:27;;;;;;;21.33;9.20;;;6.10;67.20;;;;;;4923598;29;20020;-85
2021/12/17 16:41:54;;;;;;;17.80;7.77;;;6.10;67.30;;;;;;4923459;29;20023;-85
2021/12/17 16:44:36;;;;;;;19.73;8.20;;;6.10;67.30;;;;;;4922583;29;20035;-85
2021/12/17 16:47:01;;;;;;;21.03;8.53;;;6.10;67.10;;;;;;4922738;29;20079;-86
2021/12/17 16:49:31;;;;;;;;;;;6.10;67.10;;;;;;4939156;29;20043;-83
2021/12/17 16:51:57;;;;;;;17.63;8.30;;;6.10;67.20;;;;;;4923180;29;19914;-84